.
WxDataArchive / Data Records for 2016-03-02
2016-03-01 March 2016 2016-03-03

Data Records for Wednesday, 02 March 2016

Time	Temp	Chill	HIndex	Humid	Dewpt	 Wind 	HiWind	WindDir	Rain 	Barom
-----	----	-----	------	-----	-----	------	------	-------	-----	-----
00:00	22.1	22.1	22.1	78	16.3	2	5	270	0.00	29.955 
00:05	22.2	22.2	22.2	77	16.1	2	4	270	0.00	29.955 
00:10	22.2	22.2	22.2	77	16.1	2	5	270	0.00	29.955 
00:15	22.4	22.4	22.4	76	16.0	3	7	270	0.00	29.964 
00:20	22.4	22.4	22.4	76	16.0	2	5	270	0.00	29.964 
00:25	22.4	22.4	22.4	76	16.0	2	7	270	0.00	29.964 
00:30	22.5	22.5	22.5	75	15.8	2	5	292	0.00	29.970 
00:35	22.5	22.5	22.5	75	15.8	2	5	292	0.00	29.970 
00:40	22.5	22.5	22.5	75	15.8	2	5	292	0.00	29.970 
00:45	22.5	22.5	22.5	75	15.8	2	5	292	0.00	29.977 
00:50	22.5	22.5	22.5	75	15.8	2	7	315	0.00	29.977 
00:55	22.5	22.5	22.5	75	15.8	2	7	315	0.00	29.977 
01:00	22.7	22.7	22.7	75	16.0	2	6	292	0.00	29.983 
01:05	22.7	22.7	22.7	75	16.0	1	7	292	0.00	29.983 
01:10	22.7	22.7	22.7	75	16.0	2	7	270	0.00	29.983 
01:15	22.7	22.7	22.7	75	16.0	2	5	292	0.00	29.982 
01:20	22.7	22.7	22.7	76	16.3	1	7	292	0.00	29.982 
01:25	22.5	22.5	22.5	76	16.1	1	3	292	0.00	29.982 
01:30	22.5	22.5	22.5	76	16.1	1	4	292	0.00	29.992 
01:35	22.5	22.5	22.5	76	16.1	2	5	315	0.00	29.992 
01:40	22.5	22.5	22.5	76	16.1	2	5	292	0.00	29.992 
01:45	22.4	22.4	22.4	77	16.3	1	4	292	0.00	29.997 
01:50	22.4	22.4	22.4	77	16.3	2	6	292	0.00	29.997 
01:55	22.2	22.2	22.2	77	16.1	2	5	292	0.00	29.997 
02:00	22.4	22.4	22.4	78	16.6	1	3	315	0.00	30.004 
02:05	22.2	22.2	22.2	78	16.4	1	5	292	0.00	30.004 
02:10	22.2	22.2	22.2	78	16.4	0	2	292	0.00	30.004 
02:15	22.2	22.2	22.2	78	16.4	1	3	292	0.00	30.009 
02:20	22.2	22.2	22.2	78	16.4	1	4	292	0.00	30.009 
02:25	22.2	22.2	22.2	78	16.4	1	4	292	0.00	30.009 
02:30	22.4	22.4	22.4	78	16.6	1	3	292	0.00	30.014 
02:35	22.4	22.4	22.4	78	16.6	0	3	292	0.00	30.014 
02:40	22.4	22.4	22.4	78	16.6	1	5	315	0.00	30.014 
02:45	22.4	22.4	22.4	78	16.6	0	1	315	0.00	30.019 
02:50	22.4	22.4	22.4	79	16.9	1	3	292	0.00	30.019 
02:55	22.4	22.4	22.4	79	16.9	1	3	292	0.00	30.019 
03:00	22.4	22.4	22.4	79	16.9	0	2	292	0.00	30.021 
03:05	22.4	22.4	22.4	80	17.2	0	2	292	0.00	30.021 
03:10	22.4	22.4	22.4	80	17.2	0	1	292	0.00	30.021 
03:15	22.2	22.2	22.2	81	17.3	0	3	292	0.00	30.028 
03:20	22.2	22.2	22.2	81	17.3	0	1	292	0.00	30.028 
03:25	22.2	22.2	22.2	81	17.3	0	1	292	0.00	30.028 
03:30	22.2	22.2	22.2	81	17.3	0	2	292	0.00	30.029 
03:35	22.2	22.2	22.2	81	17.3	0	1	292	0.00	30.029 
03:40	22.2	22.2	22.2	81	17.3	0	1	292	0.00	30.029 
03:45	22.2	22.2	22.2	81	17.3	0	1	292	0.00	30.031 
03:50	22.2	22.2	22.2	82	17.6	0	0	---	0.00	30.031 
03:55	22.2	22.2	22.2	82	17.6	0	1	292	0.00	30.031 
04:00	22.2	22.2	22.2	82	17.6	0	0	---	0.00	30.040 
04:05	22.4	22.4	22.4	82	17.8	0	0	---	0.00	30.040 
04:10	22.4	22.4	22.4	83	18.0	0	0	---	0.00	30.040 
04:15	22.4	22.4	22.4	83	18.0	0	0	---	0.00	30.047 
04:20	22.4	22.4	22.4	83	18.0	0	0	---	0.00	30.047 
04:25	22.4	22.4	22.4	83	18.0	0	0	---	0.00	30.047 
04:30	22.4	22.4	22.4	83	18.0	0	0	---	0.00	30.049 
04:35	22.5	22.5	22.5	84	18.4	0	0	---	0.00	30.049 
04:40	22.5	22.5	22.5	84	18.4	0	1	292	0.00	30.049 
04:45	22.7	22.7	22.7	84	18.6	0	1	292	0.00	30.056 
04:50	22.9	22.9	22.9	84	18.8	0	2	292	0.00	30.056 
04:55	23.0	23.0	23.0	84	18.9	0	1	292	0.00	30.056 
05:00	23.0	23.0	23.0	84	18.9	0	3	292	0.00	30.066 
05:05	23.0	23.0	23.0	84	18.9	0	2	292	0.00	30.066 
05:10	22.9	22.9	22.9	84	18.8	0	2	292	0.00	30.066 
05:15	22.9	22.9	22.9	84	18.8	1	4	292	0.00	30.080 
05:20	22.9	22.9	22.9	84	18.8	0	3	292	0.00	30.080 
05:25	22.9	22.9	22.9	83	18.5	0	2	292	0.00	30.080 
05:30	22.7	22.7	22.7	83	18.3	1	3	292	0.00	30.083 
05:35	22.7	22.7	22.7	83	18.3	0	1	292	0.00	30.083 
05:40	22.7	22.7	22.7	83	18.3	0	2	292	0.00	30.083 
05:45	22.5	22.5	22.5	83	18.1	0	2	292	0.00	30.085 
05:50	22.5	22.5	22.5	83	18.1	0	2	292	0.00	30.085 
05:55	22.4	22.4	22.4	83	18.0	0	2	292	0.00	30.085 
06:00	22.4	22.4	22.4	83	18.0	0	1	292	0.00	30.098 
06:05	22.2	22.2	22.2	83	17.8	0	3	292	0.00	30.098 
06:10	22.2	22.2	22.2	83	17.8	1	3	292	0.00	30.098 
06:15	22.2	22.2	22.2	82	17.6	0	1	292	0.00	30.103 
06:20	22.1	22.1	22.1	82	17.5	0	2	292	0.00	30.103 
06:25	21.9	21.9	21.9	81	17.0	0	3	292	0.00	30.103 
06:30	21.8	21.8	21.8	80	16.6	0	1	292	0.00	30.103 
06:35	21.6	21.6	21.6	80	16.4	0	2	292	0.00	30.103 
06:40	21.6	21.6	21.6	80	16.4	0	1	292	0.00	30.103 
06:45	21.4	21.4	21.4	79	15.9	0	1	292	0.00	30.106 
06:50	21.1	21.1	21.1	78	15.3	0	2	292	0.00	30.106 
06:55	21.1	21.1	21.1	78	15.3	0	2	292	0.00	30.106 
07:00	21.0	21.0	21.0	77	14.9	0	2	292	0.00	30.118 
07:05	21.0	21.0	21.0	77	14.9	0	2	292	0.00	30.118 
07:10	20.8	20.8	20.8	77	14.7	0	3	292	0.00	30.118 
07:15	20.6	20.6	20.6	77	14.6	1	3	292	0.00	30.121 
07:20	20.3	20.3	20.3	76	14.0	0	4	292	0.00	30.121 
07:25	20.2	20.2	20.2	76	13.9	1	5	248	0.00	30.121 
07:30	20.0	20.0	20.0	75	13.4	1	3	248	0.00	30.124 
07:35	19.9	19.9	19.9	75	13.3	0	2	248	0.00	30.124 
07:40	19.5	19.5	19.5	75	12.9	0	3	248	0.00	30.124 
07:45	19.5	19.5	19.5	75	12.9	0	2	248	0.00	30.130 
07:50	19.4	19.4	19.4	76	13.1	0	2	248	0.00	30.130 
07:55	19.4	19.4	19.4	75	12.8	0	1	248	0.00	30.130 
08:00	19.4	19.4	19.4	75	12.8	0	2	248	0.00	30.137 
08:05	19.4	19.4	19.4	75	12.8	0	2	248	0.00	30.137 
08:10	19.4	19.4	19.4	75	12.8	0	1	248	0.00	30.137 
08:15	19.4	19.4	19.4	75	12.8	0	2	248	0.00	30.139 
08:20	19.5	19.5	19.5	74	12.6	0	1	248	0.00	30.139 
08:25	19.5	19.5	19.5	74	12.6	1	3	248	0.00	30.139 
08:30	19.7	19.7	19.7	74	12.8	0	2	248	0.00	30.143 
08:35	20.0	20.0	20.0	74	13.1	0	3	248	0.00	30.143 
08:40	20.2	20.2	20.2	73	13.0	1	3	248	0.00	30.143 
08:45	20.5	20.5	20.5	73	13.2	0	3	248	0.00	30.143 
08:50	20.6	20.6	20.6	72	13.0	1	2	248	0.00	30.143 
08:55	21.0	21.0	21.0	71	13.1	0	2	248	0.00	30.143 
09:00	21.1	21.1	21.1	71	13.2	0	3	248	0.00	30.140 
09:05	21.3	21.3	21.3	70	13.1	1	3	248	0.00	30.140 
09:10	21.6	21.6	21.6	69	13.0	0	2	248	0.00	30.140 
09:15	21.8	21.8	21.8	69	13.2	1	3	248	0.00	30.150 
09:20	21.9	21.9	21.9	68	13.0	1	3	248	0.00	30.150 
09:25	22.1	22.1	22.1	68	13.2	1	3	248	0.00	30.150 
09:30	22.4	22.4	22.4	68	13.5	1	3	270	0.00	30.155 
09:35	22.5	22.5	22.5	67	13.2	2	3	270	0.00	30.155 
09:40	22.7	22.7	22.7	66	13.1	2	4	270	0.00	30.155 
09:45	22.9	22.9	22.9	66	13.3	1	3	270	0.00	30.164 
09:50	23.3	23.3	23.3	66	13.6	1	2	270	0.00	30.164 
09:55	23.5	23.5	23.5	66	13.8	1	4	270	0.01	30.164 
10:00	23.9	23.9	23.9	66	14.2	1	3	270	0.00	30.164 
10:05	24.1	24.1	24.1	65	14.1	2	4	270	0.00	30.164 
10:10	24.1	24.1	24.1	64	13.7	2	4	270	0.00	30.164 
10:15	24.2	24.2	24.2	64	13.8	2	4	270	0.00	30.166 
10:20	24.5	24.5	24.5	64	14.1	2	3	292	0.00	30.166 
10:25	24.8	24.8	24.8	65	14.7	2	3	270	0.00	30.166 
10:30	25.1	25.1	25.1	63	14.3	2	4	270	0.00	30.167 
10:35	25.4	25.4	25.4	64	14.9	2	5	270	0.00	30.167 
10:40	25.4	25.4	25.4	64	14.9	2	4	270	0.00	30.167 
10:45	25.6	25.6	25.6	63	14.8	2	4	270	0.01	30.168 
10:50	25.7	25.7	25.7	63	14.9	2	4	270	0.00	30.168 
10:55	26.0	26.0	26.0	64	15.5	2	4	270	0.00	30.168 
11:00	26.3	26.3	26.3	62	15.1	2	4	270	0.00	30.165 
11:05	26.1	26.1	26.1	62	14.9	3	5	270	0.00	30.165 
11:10	26.3	26.3	26.3	63	15.4	2	5	270	0.00	30.165 
11:15	26.4	26.4	26.4	62	15.2	2	5	248	0.00	30.165 
11:20	26.6	26.6	26.6	62	15.4	2	4	270	0.00	30.165 
11:25	26.9	26.9	26.9	62	15.6	2	4	270	0.00	30.165 
11:30	27.0	27.0	27.0	62	15.7	2	4	270	0.00	30.171 
11:35	27.0	27.0	27.0	60	15.0	2	4	270	0.00	30.171 
11:40	27.2	27.2	27.2	60	15.2	2	6	270	0.00	30.171 
11:45	27.0	27.0	27.0	59	14.6	2	4	270	0.00	30.174 
11:50	26.6	26.6	26.6	58	13.8	2	5	270	0.00	30.174 
11:55	26.3	26.3	26.3	59	13.9	2	4	270	0.00	30.174 
12:00	26.3	26.3	26.3	60	14.3	1	4	270	0.00	30.173 
12:05	26.6	26.6	26.6	60	14.6	3	9	270	0.00	30.173 
12:10	27.3	27.3	27.3	61	15.7	2	4	270	0.00	30.173 
12:15	27.5	27.5	27.5	60	15.5	2	6	270	0.00	30.176 
12:20	27.2	27.2	27.2	58	14.4	2	7	270	0.00	30.176 
12:25	27.3	27.3	27.3	58	14.5	1	4	292	0.00	30.176 
12:30	27.5	27.5	27.5	57	14.3	2	3	292	0.00	30.173 
12:35	27.3	27.3	27.3	55	13.3	2	6	270	0.00	30.173 
12:40	27.0	27.0	27.0	56	13.4	1	4	270	0.00	30.173 
12:45	27.2	27.2	27.2	58	14.4	1	4	270	0.00	30.175 
12:50	27.0	27.0	27.0	56	13.4	2	5	270	0.00	30.175 
12:55	27.5	27.5	27.5	56	13.9	2	7	292	0.00	30.175 
13:00	27.6	27.6	27.6	56	14.0	2	6	270	0.00	30.164 
13:05	27.9	27.9	27.9	58	15.1	1	3	270	0.00	30.164 
13:10	28.4	28.4	28.4	56	14.7	2	7	270	0.00	30.164 
13:15	28.8	28.8	28.8	54	14.3	2	7	270	0.00	30.162 
13:20	29.1	29.1	29.1	54	14.6	2	4	248	0.00	30.162 
13:25	29.4	29.4	29.4	54	14.8	2	5	270	0.00	30.162 
13:30	29.5	29.5	29.5	52	14.1	1	4	270	0.00	30.158 
13:35	29.7	29.7	29.7	51	13.8	2	6	248	0.00	30.158 
13:40	29.8	29.8	29.8	52	14.3	2	4	270	0.00	30.158 
13:45	29.7	29.7	29.7	49	12.9	2	5	270	0.00	30.158 
13:50	29.7	29.7	29.7	50	13.4	2	4	270	0.00	30.158 
13:55	29.4	29.4	29.4	47	11.7	2	4	270	0.00	30.158 
14:00	29.4	29.4	29.4	49	12.6	2	5	248	0.00	30.156 
14:05	29.5	29.5	29.5	46	11.3	2	4	270	0.00	30.156 
14:10	29.8	29.8	29.8	47	12.1	2	5	292	0.00	30.156 
14:15	30.1	30.1	30.1	46	11.8	2	6	292	0.00	30.149 
14:20	30.0	30.0	30.0	44	10.8	2	4	270	0.00	30.149 
14:25	30.0	30.0	30.0	45	11.3	2	4	270	0.00	30.149 
14:30	30.0	30.0	30.0	45	11.3	1	5	270	0.00	30.147 
14:35	29.8	29.8	29.8	41	9.0	3	9	270	0.00	30.147 
14:40	29.8	29.8	29.8	43	10.1	3	6	270	0.00	30.147 
14:45	30.1	30.1	30.1	42	9.8	1	4	270	0.00	30.145 
14:50	30.1	30.1	30.1	41	9.3	2	6	270	0.00	30.145 
14:55	29.8	29.8	29.8	42	9.5	2	6	315	0.00	30.145 
15:00	30.1	30.1	30.1	41	9.3	2	5	292	0.00	30.147 
15:05	30.0	30.0	30.0	40	8.6	2	6	292	0.00	30.147 
15:10	30.0	30.0	30.0	42	9.7	2	4	292	0.00	30.147 
15:15	30.3	30.3	30.3	42	10.0	1	3	292	0.00	30.145 
15:20	30.3	30.3	30.3	40	8.9	1	4	292	0.00	30.145 
15:25	30.6	30.6	30.6	41	9.7	1	3	315	0.00	30.145 
15:30	30.6	30.6	30.6	41	9.7	2	6	292	0.00	30.144 
15:35	30.4	30.4	30.4	41	9.5	1	4	292	0.00	30.144 
15:40	30.3	30.3	30.3	38	7.8	2	4	292	0.00	30.144 
15:45	30.0	30.0	30.0	39	8.1	2	6	292	0.00	30.140 
15:50	30.1	30.1	30.1	37	7.0	2	5	338	0.00	30.140 
15:55	30.0	30.0	30.0	37	6.9	2	6	292	0.00	30.140 
16:00	30.1	30.1	30.1	38	7.6	1	7	315	0.00	30.140 
16:05	30.3	30.3	30.3	37	7.2	1	4	270	0.00	30.140 
16:10	30.6	30.6	30.6	38	8.0	1	3	270	0.00	30.140 
16:15	30.7	30.7	30.7	37	7.5	0	2	270	0.00	30.131 
16:20	30.7	30.7	30.7	38	8.1	1	3	270	0.00	30.131 
16:25	30.6	30.6	30.6	39	8.6	1	3	270	0.00	30.131 
16:30	30.3	30.3	30.3	39	8.3	1	4	292	0.00	30.136 
16:35	30.6	30.6	30.6	39	8.6	0	2	292	0.00	30.136 
16:40	30.4	30.4	30.4	38	7.9	0	2	292	0.00	30.136 
16:45	30.3	30.3	30.3	39	8.3	1	4	292	0.00	30.134 
16:50	30.3	30.3	30.3	39	8.3	1	3	292	0.00	30.134 
16:55	30.3	30.3	30.3	40	8.9	0	2	292	0.00	30.134 
17:00	30.3	30.3	30.3	40	8.9	0	3	292	0.00	30.138 
17:05	30.3	30.3	30.3	39	8.3	0	2	292	0.00	30.138 
17:10	30.4	30.4	30.4	40	9.0	1	3	292	0.00	30.138 
17:15	30.4	30.4	30.4	40	9.0	0	2	292	0.00	30.141 
17:20	30.3	30.3	30.3	39	8.3	0	4	292	0.00	30.141 
17:25	30.1	30.1	30.1	39	8.2	0	3	292	0.00	30.141 
17:30	29.8	29.8	29.8	38	7.3	0	3	292	0.00	30.144 
17:35	29.7	29.7	29.7	39	7.8	1	3	292	0.00	30.144 
17:40	29.7	29.7	29.7	40	8.4	0	1	292	0.00	30.144 
17:45	29.8	29.8	29.8	40	8.5	0	1	292	0.00	30.149 
17:50	29.5	29.5	29.5	39	7.6	0	3	292	0.00	30.149 
17:55	29.4	29.4	29.4	41	8.6	0	1	292	0.00	30.149 
18:00	29.4	29.4	29.4	41	8.6	0	1	292	0.00	30.148 
18:05	29.3	29.3	29.3	42	9.1	0	1	292	0.00	30.148 
18:10	29.1	29.1	29.1	42	8.9	0	1	292	0.00	30.148 
18:15	29.0	29.0	29.0	43	9.3	0	1	292	0.00	30.150 
18:20	28.8	28.8	28.8	42	8.6	0	1	292	0.00	30.150 
18:25	28.8	28.8	28.8	43	9.2	0	1	292	0.00	30.150 
18:30	28.7	28.7	28.7	44	9.6	0	1	292	0.00	30.162 
18:35	28.4	28.4	28.4	44	9.3	0	1	292	0.00	30.162 
18:40	28.2	28.2	28.2	44	9.1	0	0	---	0.00	30.162 
18:45	28.1	28.1	28.1	45	9.5	0	0	---	0.00	30.162 
18:50	27.9	27.9	27.9	46	9.8	0	0	---	0.00	30.162 
18:55	27.8	27.8	27.8	47	10.2	0	0	---	0.00	30.162 
19:00	27.5	27.5	27.5	48	10.4	0	0	---	0.00	30.165 
19:05	27.2	27.2	27.2	49	10.6	0	0	---	0.00	30.165 
19:10	26.9	26.9	26.9	49	10.3	0	0	---	0.00	30.165 
19:15	26.7	26.7	26.7	50	10.6	0	0	---	0.00	30.176 
19:20	26.6	26.6	26.6	51	10.9	0	0	---	0.00	30.176 
19:25	26.4	26.4	26.4	52	11.2	0	0	---	0.00	30.176 
19:30	26.1	26.1	26.1	52	10.9	0	0	---	0.00	30.181 
19:35	26.0	26.0	26.0	52	10.8	0	0	---	0.00	30.181 
19:40	25.8	25.8	25.8	51	10.2	0	0	---	0.00	30.181 
19:45	25.6	25.6	25.6	51	10.0	0	0	---	0.00	30.183 
19:50	25.4	25.4	25.4	52	10.3	0	0	---	0.00	30.183 
19:55	25.4	25.4	25.4	52	10.3	0	0	---	0.00	30.183 
20:00	25.3	25.3	25.3	53	10.6	0	0	---	0.00	30.177 
20:05	25.1	25.1	25.1	54	10.8	0	0	---	0.00	30.177 
20:10	25.1	25.1	25.1	56	11.6	0	0	---	0.00	30.177 
20:15	25.1	25.1	25.1	57	12.0	0	0	---	0.00	30.170 
20:20	25.3	25.3	25.3	57	12.2	0	0	---	0.00	30.170 
20:25	25.3	25.3	25.3	58	12.6	0	0	---	0.00	30.170 
20:30	25.1	25.1	25.1	58	12.4	0	0	---	0.00	30.168 
20:35	25.1	25.1	25.1	58	12.4	0	0	---	0.00	30.168 
20:40	25.1	25.1	25.1	58	12.4	0	0	---	0.00	30.168 
20:45	25.0	25.0	25.0	58	12.3	0	0	---	0.00	30.172 
20:50	25.0	25.0	25.0	58	12.3	0	0	---	0.00	30.172 
20:55	24.8	24.8	24.8	58	12.1	0	0	---	0.00	30.172 
21:00	24.8	24.8	24.8	59	12.5	0	0	---	0.00	30.178 
21:05	24.7	24.7	24.7	59	12.4	0	0	---	0.00	30.178 
21:10	24.7	24.7	24.7	59	12.4	0	0	---	0.00	30.178 
21:15	24.7	24.7	24.7	59	12.4	0	0	---	0.00	30.181 
21:20	24.7	24.7	24.7	58	12.1	0	0	---	0.00	30.181 
21:25	24.7	24.7	24.7	58	12.1	0	0	---	0.00	30.181 
21:30	24.7	24.7	24.7	58	12.1	0	0	---	0.00	30.184 
21:35	24.8	24.8	24.8	58	12.1	0	1	292	0.00	30.184 
21:40	25.0	25.0	25.0	58	12.3	0	1	292	0.00	30.184 
21:45	25.1	25.1	25.1	56	11.6	0	0	---	0.00	30.181 
21:50	25.3	25.3	25.3	57	12.2	0	0	---	0.00	30.181 
21:55	25.4	25.4	25.4	57	12.3	0	1	292	0.00	30.181 
22:00	25.4	25.4	25.4	57	12.3	0	1	292	0.00	30.183 
22:05	25.4	25.4	25.4	58	12.7	0	0	---	0.00	30.183 
22:10	25.4	25.4	25.4	58	12.7	0	0	---	0.00	30.183 
22:15	25.4	25.4	25.4	60	13.5	0	1	292	0.00	30.182 
22:20	25.3	25.3	25.3	61	13.8	0	2	292	0.00	30.182 
22:25	25.1	25.1	25.1	61	13.6	0	1	292	0.00	30.182 
22:30	25.1	25.1	25.1	61	13.6	0	1	292	0.00	30.179 
22:35	25.1	25.1	25.1	61	13.6	0	1	292	0.00	30.179 
22:40	25.0	25.0	25.0	61	13.5	0	1	292	0.00	30.179 
22:45	25.0	25.0	25.0	60	13.1	0	1	292	0.00	30.179 
22:50	24.8	24.8	24.8	60	12.9	0	1	292	0.00	30.179 
22:55	24.8	24.8	24.8	59	12.5	0	1	292	0.00	30.179 
23:00	24.8	24.8	24.8	59	12.5	0	1	292	0.00	30.180 
23:05	24.8	24.8	24.8	59	12.5	0	1	292	0.00	30.180 
23:10	24.8	24.8	24.8	59	12.5	0	0	---	0.00	30.180 
23:15	24.8	24.8	24.8	59	12.5	0	1	292	0.00	30.179 
23:20	24.8	24.8	24.8	59	12.5	0	1	292	0.00	30.179 
23:25	24.8	24.8	24.8	59	12.5	0	2	292	0.00	30.179 
23:30	24.8	24.8	24.8	59	12.5	0	1	292	0.00	30.174 
23:35	24.8	24.8	24.8	59	12.5	0	2	292	0.00	30.174 
23:40	24.8	24.8	24.8	58	12.1	0	2	292	0.00	30.174 
23:45	24.7	24.7	24.7	59	12.4	0	2	292	0.00	30.166 
23:50	24.7	24.7	24.7	60	12.8	0	2	292	0.00	30.166 
23:55	24.7	24.7	24.7	61	13.2	0	2	292	0.00	30.166 

CoCoRaHS
IN-AL-39
A2 Web Hosting
Creative Commons License
GoDaddy
search engine by freefind advanced

loaded 2018-11-12 19:35:20 • last modified 2010-11-18 10:43:29
Privacy PolicyDisclaimer
• wx.awcolley.com is powered by PmWiki v.2002016 •
• all content (unless otherwise noted) © 2018 A W Colley